Líbí se Vám tento web? Budeme velmi rádi, pokud přidáte hodnocení +1

Seznam meteostanic a jejich METAR

Vyhledat místa podle abecedy:
A B C D E F G H I J K L M N O P Q R S T U V W X Y Z

Filtrovat:

ID stanice:
a/nebo
Název místa (fulltext):
 
Místo (ID)Naposledy načteno 
Ústí nad Labem - Kočkov (Usti n/L) 20.01.2018 03:00 UTC Zobrazit data
Místo: Ústí nad Labem - Kočkov
Teplota: -1 °C (pocitová: -5.5 °C)
Vítr: 1 m/s z(e) 0°
Počasí: zataženo
Dohlednost: 6 km
Zákl. oblačnosti: N/A
Vlhkost: 100%
Ústí nad Orlicí (Usti n/O) 20.01.2018 03:00 UTC Zobrazit data
Místo: Ústí nad Orlicí
Teplota: 0 °C (pocitová: -4.3 °C)
Vítr: 1 m/s z(e) 110°
Počasí: zataženo
Dohlednost: 3600 m
Zákl. oblačnosti: 7/8 240 m;8/8 810 m
Vlhkost: 100%
Ulaanbaatar (ZMUB) Zatím nenačteno  
Uvea Island (NLWW) 15.01.2018 02:00 UTC Zobrazit METAR
NLWW 150200Z 03009KT 350V070 9999 SCT034 SCT200 BKN290 31/23 Q1008 R88/000095 NOSIG
Uzhhorod (UKLU) Zatím nenačteno  
Reklama

Počasí na Váš email

Emaily jsou bez reklamy a bez spamu



Odhlásit newsletter

Reklama


Lunární kalendář

  • 24.01.
  • 31.01.
  • 07.02.
  • 15.02.



Jsme na Google Plus

Reklama
Povinné ručení



Může Vás také zajímat:


Reklama